TimeEDT,TemperatureF,Dew PointF,Humidity,Sea Level PressureIn,VisibilityMPH,Wind Direction,Wind SpeedMPH,Gust SpeedMPH,PrecipitationIn,Events,Conditions,WindDirDegrees,DateUTC
12:53 AM,46.9,44.1,90,30.06,10.0,Calm,Calm,-,N/A,,Clear,0,2013-10-04 04:53:00
1:53 AM,46.0,44.1,93,30.07,10.0,Calm,Calm,-,N/A,,Clear,0,2013-10-04 05:53:00
2:53 AM,45.0,43.0,93,30.06,10.0,Calm,Calm,-,N/A,,Clear,0,2013-10-04 06:53:00
3:53 AM,44.1,42.1,93,30.06,10.0,Calm,Calm,-,N/A,,Clear,0,2013-10-04 07:53:00
4:53 AM,43.0,41.0,93,30.06,10.0,Calm,Calm,-,N/A,,Clear,0,2013-10-04 08:53:00
5:53 AM,43.0,41.0,93,30.07,10.0,Calm,Calm,-,N/A,,Clear,0,2013-10-04 09:53:00
6:53 AM,43.0,41.0,93,30.09,10.0,Calm,Calm,-,N/A,,Clear,0,2013-10-04 10:53:00
7:53 AM,48.9,46.9,93,30.10,10.0,Calm,Calm,-,N/A,,Clear,0,2013-10-04 11:53:00
8:53 AM,57.9,52.0,81,30.11,10.0,Calm,Calm,-,N/A,,Clear,0,2013-10-04 12:53:00
9:53 AM,66.0,51.1,59,30.09,10.0,Calm,Calm,-,N/A,,Clear,0,2013-10-04 13:53:00
10:53 AM,69.1,48.0,47,30.09,10.0,Calm,Calm,-,N/A,,Clear,0,2013-10-04 14:53:00
11:53 AM,70.0,48.0,46,30.07,10.0,Calm,Calm,-,N/A,,Clear,0,2013-10-04 15:53:00
12:53 PM,70.0,48.9,47,30.06,10.0,SW,3.5,-,N/A,,Clear,230,2013-10-04 16:53:00
1:53 PM,69.1,51.1,53,30.05,10.0,Calm,Calm,-,N/A,,Scattered Clouds,0,2013-10-04 17:53:00
2:53 PM,70.0,51.1,51,30.04,10.0,Calm,Calm,-,N/A,,Partly Cloudy,0,2013-10-04 18:53:00
3:53 PM,70.0,53.1,55,30.03,10.0,SSW,3.5,-,N/A,,Clear,200,2013-10-04 19:53:00
4:53 PM,68.0,53.1,59,30.04,10.0,SW,3.5,-,N/A,,Clear,220,2013-10-04 20:53:00
5:53 PM,63.0,54.0,72,30.05,10.0,Calm,Calm,-,N/A,,Clear,0,2013-10-04 21:53:00
6:53 PM,60.1,54.0,80,30.06,10.0,Calm,Calm,-,N/A,,Clear,0,2013-10-04 22:53:00
7:53 PM,59.0,54.0,83,30.06,10.0,Calm,Calm,-,N/A,,Clear,0,2013-10-04 23:53:00
8:53 PM,57.9,53.1,84,30.07,10.0,Calm,Calm,-,N/A,,Clear,0,2013-10-05 00:53:00
9:53 PM,55.9,53.1,90,30.08,10.0,Calm,Calm,-,N/A,,Partly Cloudy,0,2013-10-05 01:53:00
10:53 PM,55.0,52.0,89,30.10,10.0,Calm,Calm,-,N/A,,Scattered Clouds,0,2013-10-05 02:53:00
11:53 PM,53.1,50.0,89,30.10,10.0,Calm,Calm,-,N/A,,Scattered Clouds,0,2013-10-05 03:53:00